Time;durP1;ratioP1;P1;durP2;ratioP2;P2;SDS_P1;SDS_P2;PMS_P1;PMS_P2;Temp;Humidity;BMP_temperature;BMP_pressure;BME280_temperature;BME280_humidity;BME280_pressure;Samples;Min_cycle;Max_cycle;Signal;HPM_P1;HPM_P2
2022/07/28 00:01:52;;;;;;;1.15;0.60;;;;;;;23.51;38.80;102050.06;5065659;28;20103;-60
2022/07/28 00:04:18;;;;;;;1.45;0.60;;;;;;;23.51;38.73;102054.66;5065647;28;20029;-60
2022/07/28 00:06:43;;;;;;;2.63;0.70;;;;;;;23.44;38.89;102049.91;5079772;28;20024;-60
2022/07/28 00:09:08;;;;;;;1.15;0.68;;;;;;;23.43;38.87;102041.94;5085667;28;20027;-59
2022/07/28 00:11:34;;;;;;;2.58;0.65;;;;;;;23.49;38.71;102053.97;5085731;28;20032;-58
2022/07/28 00:13:59;;;;;;;1.88;0.68;;;;;;;23.48;38.86;102049.56;5084055;28;20032;-60
2022/07/28 00:16:24;;;;;;;0.90;0.60;;;;;;;23.46;38.78;102044.31;5085585;28;20092;-60
2022/07/28 00:18:50;;;;;;;1.58;0.60;;;;;;;23.46;38.90;102049.75;5085416;28;20028;-60
2022/07/28 00:21:15;;;;;;;0.63;0.60;;;;;;;23.41;38.82;102046.69;5085223;28;20028;-60
2022/07/28 00:23:40;;;;;;;0.95;0.50;;;;;;;23.39;38.77;102043.28;5085283;28;20082;-60
2022/07/28 00:26:07;;;;;;;2.25;0.73;;;;;;;23.42;38.89;102045.69;5085375;28;20024;-60
2022/07/28 00:28:32;;;;;;;1.95;0.82;;;;;;;23.42;38.76;102049.22;5085453;28;20025;-60
2022/07/28 00:30:57;;;;;;;0.90;0.50;;;;;;;23.42;38.76;102042.97;5085770;28;20047;-59
2022/07/28 00:33:23;;;;;;;1.55;0.60;;;;;;;23.37;39.08;102040.75;5083789;28;20453;-59
2022/07/28 00:35:48;;;;;;;1.90;0.68;;;;;;;23.39;38.63;102044.13;5084803;28;20032;-59
2022/07/28 00:38:13;;;;;;;0.68;0.45;;;;;;;23.40;38.67;102044.97;5085324;28;20100;-60
2022/07/28 00:43:22;;;;;;;1.25;0.63;;;;;;;23.39;38.86;102043.28;5084716;28;20054;-60
2022/07/28 00:45:48;;;;;;;2.47;0.60;;;;;;;23.37;38.91;102040.75;5085399;28;20052;-59
2022/07/28 00:48:13;;;;;;;1.27;0.60;;;;;;;23.36;38.92;102038.19;5085383;28;20496;-60
2022/07/28 00:50:39;;;;;;;1.77;0.63;;;;;;;23.35;38.83;102042.78;5088817;28;20521;-60
2022/07/28 00:53:05;;;;;;;1.27;0.50;;;;;;;23.36;38.76;102043.63;5091709;28;20083;-60
2022/07/28 00:55:31;;;;;;;1.35;0.57;;;;;;;23.34;38.92;102032.13;5091896;28;20028;-60
2022/07/28 00:57:56;;;;;;;1.27;0.40;;;;;;;23.31;38.89;102029.72;5090357;28;20027;-60
2022/07/28 01:00:21;;;;;;;0.90;0.50;;;;;;;23.33;38.78;102030.41;5091937;28;20028;-60
2022/07/28 01:02:47;;;;;;;4.18;0.63;;;;;;;23.32;38.66;102028.69;5081803;28;20501;-60
2022/07/28 01:05:13;;;;;;;1.67;0.90;;;;;;;23.31;38.95;102033.28;5085446;28;20020;-60
2022/07/28 01:07:42;;;;;;;2.15;0.70;;;;;;;23.31;38.94;102036.00;5074995;28;20021;-60
2022/07/28 01:10:07;;;;;;;;;;;;;;;23.30;38.71;102028.03;5072489;28;20016;-60
2022/07/28 01:12:48;;;;;;;0.95;0.63;;;;;;;23.30;38.95;102028.03;5091318;28;19908;-60
2022/07/28 01:15:40;;;;;;;2.95;0.80;;;;;;;23.28;38.89;102019.22;5090809;28;20039;-59
2022/07/28 01:18:10;;;;;;;1.08;0.50;;;;;;;23.26;39.02;102016.69;5090341;28;20076;-60
2022/07/28 01:20:59;;;;;;;1.10;0.60;;;;;;;23.26;38.89;102018.53;5071860;28;20024;-60
2022/07/28 01:23:30;;;;;;;0.88;0.70;;;;;;;23.24;38.90;102016.00;5071478;28;20021;-60
2022/07/28 01:26:24;;;;;;;2.00;0.70;;;;;;;23.24;38.87;102016.00;5071665;28;20028;-60
2022/07/28 01:29:02;;;;;;;1.48;0.73;;;;;;;23.19;38.84;102011.09;5070265;28;20040;-59
2022/07/28 01:31:37;;;;;;;1.48;0.55;;;;;;;23.22;38.88;102015.31;5070279;28;20092;-59
2022/07/28 01:34:07;;;;;;;1.40;0.90;;;;;;;23.20;38.91;102012.78;5070280;28;20036;-59
2022/07/28 01:36:38;;;;;;;0.88;0.65;;;;;;;23.19;39.05;102018.38;5078411;28;20032;-59
2022/07/28 01:39:03;;;;;;;1.38;0.70;;;;;;;23.20;38.84;102020.09;5090336;28;20028;-60
2022/07/28 01:41:30;;;;;;;2.10;0.80;;;;;;;23.19;38.95;102024.66;5091354;28;20028;-60
2022/07/28 01:44:01;;;;;;;0.93;0.52;;;;;;;23.19;39.07;102011.09;5089734;28;20045;-59
2022/07/28 01:46:27;;;;;;;1.60;0.93;;;;;;;23.18;39.04;102012.09;5090174;28;20427;-59
2022/07/28 01:48:53;;;;;;;1.67;0.82;;;;;;;23.18;38.90;102003.13;5091441;28;20044;-59
2022/07/28 01:51:19;;;;;;;8.68;1.17;;;;;;;23.17;38.85;102010.41;5089588;28;20028;-60
2022/07/28 01:53:46;;;;;;;1.27;0.60;;;;;;;23.16;38.92;101999.75;5090048;28;20063;-60
2022/07/28 01:56:12;;;;;;;1.65;0.63;;;;;;;23.15;38.81;101996.19;5090262;28;20042;-60
2022/07/28 01:58:38;;;;;;;1.25;0.70;;;;;;;23.15;38.80;101995.31;5090062;28;20027;-60
2022/07/28 02:01:04;;;;;;;1.02;0.57;;;;;;;23.14;38.90;101996.34;5089369;28;20021;-60
2022/07/28 02:03:31;;;;;;;2.13;0.77;;;;;;;23.13;38.64;101998.19;5086353;28;20024;-60
2022/07/28 02:05:58;;;;;;;1.02;0.77;;;;;;;23.05;38.88;101981.94;5086133;28;20064;-60
2022/07/28 02:08:24;;;;;;;0.90;0.70;;;;;;;23.07;38.93;101979.91;5070103;28;20071;-59
2022/07/28 02:13:36;;;;;;;1.35;0.65;;;;;;;23.11;38.75;101988.56;5067339;28;20460;-60
2022/07/28 02:16:03;;;;;;;1.48;0.88;;;;;;;23.10;38.59;101987.69;5067953;28;20048;-60
2022/07/28 02:18:30;;;;;;;1.65;0.80;;;;;;;23.10;38.90;101989.56;5066452;28;20477;-60
2022/07/28 02:20:55;;;;;;;2.15;0.70;;;;;;;23.09;38.67;101988.72;5066177;28;20047;-60
2022/07/28 02:23:22;;;;;;;1.60;0.80;;;;;;;23.09;38.75;101987.88;5066299;28;20448;-60
2022/07/28 02:25:48;;;;;;;1.60;0.93;;;;;;;23.08;38.93;101978.03;5066453;28;20489;-60
2022/07/28 02:28:14;;;;;;;1.05;0.70;;;;;;;23.02;38.71;101978.69;5066312;28;20032;-59
2022/07/28 02:30:46;;;;;;;1.65;1.10;;;;;;;23.06;38.58;101980.06;5066465;28;20056;-60
2022/07/28 02:33:16;;;;;;;1.02;0.60;;;;;;;23.04;38.82;101977.53;5067267;28;20470;-60
2022/07/28 02:36:16;;;;;;;1.38;0.80;;;;;;;23.03;38.85;101975.84;5065670;28;20029;-59
2022/07/28 02:38:44;;;;;;;1.38;0.70;;;;;;;22.91;38.89;101963.63;5060211;28;20069;-59
2022/07/28 02:41:16;;;;;;;2.58;0.98;;;;;;;22.94;38.66;101969.56;5066254;28;20048;-60
2022/07/28 02:43:47;;;;;;;2.05;1.00;;;;;;;23.01;38.63;101987.88;5066561;28;20399;-60
2022/07/28 02:46:13;;;;;;;0.80;0.73;;;;;;;23.00;38.65;101995.16;5067348;28;20021;-60
2022/07/28 02:48:40;;;;;;;1.20;0.90;;;;;;;22.99;38.73;101985.34;5067013;28;20032;-60
2022/07/28 02:51:06;;;;;;;1.77;0.90;;;;;;;22.99;38.62;101979.06;5065272;28;20067;-61
2022/07/28 02:53:32;;;;;;;1.88;0.85;;;;;;;22.98;38.78;101980.94;5065601;28;20024;-60
2022/07/28 02:55:57;;;;;;;2.22;0.70;;;;;;;22.95;38.79;101973.97;5066957;28;20025;-60
2022/07/28 02:58:24;;;;;;;2.15;1.00;;;;;;;22.95;39.00;101975.84;5065741;28;20103;-60
2022/07/28 03:00:51;;;;;;;1.17;0.70;;;;;;;22.95;38.58;101970.41;5065523;28;20754;-59
2022/07/28 03:03:16;;;;;;;1.30;0.70;;;;;;;22.94;38.67;101976.88;5065537;28;20028;-60
2022/07/28 03:05:42;;;;;;;1.52;0.93;;;;;;;22.94;38.70;101982.28;5065052;28;20021;-60
2022/07/28 03:08:07;;;;;;;1.17;0.70;;;;;;;22.93;38.96;101980.56;5066777;28;20025;-60
2022/07/28 03:10:33;;;;;;;1.30;0.82;;;;;;;22.93;38.77;101986.00;5074278;28;20381;-60
2022/07/28 03:12:59;;;;;;;2.22;0.90;;;;;;;22.81;38.58;101969.19;5085826;28;20020;-60
2022/07/28 03:15:24;;;;;;;2.97;0.75;;;;;;;22.85;38.65;101975.97;5086743;28;20032;-59
2022/07/28 03:17:50;;;;;;;1.40;0.70;;;;;;;22.90;38.65;101979.06;5086524;28;20126;-60
2022/07/28 03:20:15;;;;;;;3.47;0.90;;;;;;;22.84;38.66;101971.56;5086242;28;20043;-60
2022/07/28 03:22:40;;;;;;;1.38;1.15;;;;;;;22.89;38.65;101981.88;5086373;28;20024;-60
2022/07/28 03:25:12;;;;;;;1.23;0.80;;;;;;;22.81;38.70;101973.75;5085352;28;20170;-59
2022/07/28 03:27:40;;;;;;;1.15;0.70;;;;;;;22.87;38.63;101981.22;5085241;28;20040;-59
2022/07/28 03:30:08;;;;;;;1.65;0.77;;;;;;;22.86;38.60;101976.81;5086596;28;20035;-60
2022/07/28 03:32:36;;;;;;;2.03;0.90;;;;;;;22.79;38.59;101965.78;5086243;28;20024;-60
2022/07/28 03:35:01;;;;;;;2.03;0.90;;;;;;;22.84;38.73;101979.69;5084700;28;20024;-59
2022/07/28 03:38:12;;;;;;;1.67;0.80;;;;;;;22.85;38.89;101983.25;5086397;28;20046;-60
2022/07/28 03:40:38;;;;;;;1.83;0.90;;;;;;;22.64;38.53;101954.78;5063724;28;20071;-60
2022/07/28 03:43:07;;;;;;;1.83;0.90;;;;;;;22.82;38.80;101991.72;5063348;28;20107;-60
2022/07/28 03:45:33;;;;;;;0.95;0.70;;;;;;;22.82;38.80;102005.28;5063659;28;20502;-60
2022/07/28 03:47:58;;;;;;;1.42;1.00;;;;;;;22.82;38.78;101997.16;5063515;28;20033;-60
2022/07/28 03:50:24;;;;;;;0.95;0.73;;;;;;;22.81;38.82;102000.88;5063113;28;20067;-60
2022/07/28 03:52:49;;;;;;;1.30;0.80;;;;;;;22.80;38.57;101994.59;5063387;28;20032;-60
2022/07/28 03:55:15;;;;;;;1.48;0.73;;;;;;;22.79;38.80;102003.75;5063682;28;20040;-59
2022/07/28 03:57:40;;;;;;;1.25;0.70;;;;;;;22.79;38.67;102001.03;5063132;28;20021;-60
2022/07/28 04:00:08;;;;;;;2.20;1.00;;;;;;;22.78;38.81;102007.50;5063314;28;20033;-60
2022/07/28 04:02:33;;;;;;;1.10;1.00;;;;;;;22.78;38.77;102003.94;5062846;28;20449;-60
2022/07/28 04:04:59;;;;;;;1.50;0.82;;;;;;;22.77;38.76;102003.09;5062864;28;20055;-58
2022/07/28 04:07:25;;;;;;;1.23;1.00;;;;;;;22.76;38.82;101998.66;5063446;28;20041;-60
2022/07/28 04:09:50;;;;;;;2.45;0.90;;;;;;;22.75;38.83;102004.25;5061476;28;20033;-59
2022/07/28 04:12:15;;;;;;;1.63;0.88;;;;;;;22.74;38.92;102000.72;5043144;28;20045;-59
2022/07/28 04:14:40;;;;;;;1.23;0.88;;;;;;;22.74;38.72;102002.56;5055187;28;20060;-61
2022/07/28 04:17:06;;;;;;;1.77;0.90;;;;;;;22.67;38.79;102003.22;5065576;28;20021;-61
2022/07/28 04:19:31;;;;;;;2.42;0.95;;;;;;;22.73;38.90;101998.19;5065520;28;20047;-60
2022/07/28 04:21:56;;;;;;;1.85;1.00;;;;;;;22.71;38.91;102010.00;5064660;28;20031;-60
2022/07/28 04:24:21;;;;;;;1.85;0.80;;;;;;;22.71;38.78;102007.28;5064919;28;20040;-61
2022/07/28 04:26:47;;;;;;;1.83;0.95;;;;;;;22.70;38.84;102011.03;5065124;28;20044;-59
2022/07/28 04:29:12;;;;;;;1.88;0.90;;;;;;;22.70;38.91;102011.03;5065470;28;20052;-60
2022/07/28 04:31:37;;;;;;;3.00;1.27;;;;;;;22.70;38.84;102007.47;5065076;28;20025;-60
2022/07/28 04:34:02;;;;;;;2.30;1.00;;;;;;;22.68;38.57;101994.09;5065023;28;20025;-60
2022/07/28 04:36:28;;;;;;;1.60;0.90;;;;;;;22.69;38.98;101994.94;5064653;28;20029;-60
2022/07/28 04:38:53;;;;;;;2.17;1.02;;;;;;;22.68;38.83;102001.34;5065183;28;20020;-60
2022/07/28 04:41:19;;;;;;;1.50;0.75;;;;;;;22.68;38.95;101995.94;5065247;28;20025;-60
2022/07/28 04:43:44;;;;;;;2.95;1.10;;;;;;;22.68;38.85;102004.06;5064426;28;20506;-60
2022/07/28 04:46:09;;;;;;;0.90;0.68;;;;;;;22.68;38.88;102015.78;5065180;28;20025;-60
2022/07/28 04:48:35;;;;;;;1.80;1.10;;;;;;;22.68;38.82;102013.06;5064871;28;20033;-60
2022/07/28 04:51:00;;;;;;;1.10;0.80;;;;;;;22.67;38.95;102014.06;5064724;28;20044;-60
2022/07/28 04:53:27;;;;;;;1.38;1.00;;;;;;;22.67;38.88;102010.50;5047024;28;20036;-60
2022/07/28 04:55:54;;;;;;;2.35;0.90;;;;;;;22.68;38.78;102017.63;5065098;28;20025;-60
2022/07/28 04:58:19;;;;;;;1.75;0.90;;;;;;;22.67;38.88;102013.22;5064863;28;20015;-60
2022/07/28 05:00:44;;;;;;;1.63;0.90;;;;;;;22.67;39.04;102008.66;5064913;28;20040;-61
2022/07/28 05:03:10;;;;;;;2.75;1.20;;;;;;;22.66;39.00;102017.81;5064556;28;20021;-60
2022/07/28 05:05:35;;;;;;;2.10;1.20;;;;;;;22.65;39.14;102007.97;5063624;28;20558;-60
2022/07/28 05:08:00;;;;;;;1.63;1.05;;;;;;;22.65;39.14;102005.28;5062390;28;20021;-60
2022/07/28 05:10:25;;;;;;;1.77;0.90;;;;;;;22.66;39.23;102011.53;5071099;28;20052;-60
2022/07/28 05:12:52;;;;;;;1.92;1.02;;;;;;;22.59;39.00;101997.78;5084244;28;20028;-60
2022/07/28 05:15:18;;;;;;;1.42;0.95;;;;;;;22.65;38.81;102007.97;5085034;28;20035;-59
2022/07/28 05:17:43;;;;;;;1.75;1.02;;;;;;;22.65;39.01;102005.28;5084601;28;20017;-59
2022/07/28 05:20:09;;;;;;;2.22;0.88;;;;;;;22.64;39.11;102006.28;5084577;28;20052;-60
2022/07/28 05:22:45;;;;;;;1.10;0.82;;;;;;;22.65;39.02;102010.69;5084589;28;20031;-60
2022/07/28 05:25:18;;;;;;;1.55;0.90;;;;;;;22.65;39.17;102007.13;5085053;28;20024;-60
2022/07/28 05:27:45;;;;;;;1.85;1.10;;;;;;;22.62;39.14;102002.88;5084330;28;20036;-60
2022/07/28 05:30:10;;;;;;;1.10;0.77;;;;;;;22.63;38.87;102003.72;5084948;28;20051;-60
2022/07/28 05:32:36;;;;;;;1.50;0.90;;;;;;;22.64;39.10;102003.59;5084259;28;20453;-60
2022/07/28 05:35:01;;;;;;;1.98;1.38;;;;;;;22.64;38.89;102002.72;5084261;28;20028;-60
2022/07/28 05:37:27;;;;;;;1.35;0.82;;;;;;;22.64;38.84;102003.59;5086612;28;20016;-60
2022/07/28 05:39:53;;;;;;;1.52;0.80;;;;;;;22.64;39.00;102009.00;5088461;28;20082;-59
2022/07/28 05:42:18;;;;;;;3.28;1.30;;;;;;;22.64;39.16;102006.28;5087833;28;20024;-59
2022/07/28 05:44:43;;;;;;;1.55;1.00;;;;;;;22.64;38.99;102011.72;5088120;28;20107;-60
2022/07/28 05:47:08;;;;;;;1.33;0.88;;;;;;;22.61;39.20;102003.91;5087787;28;20031;-60
2022/07/28 05:49:34;;;;;;;2.03;1.08;;;;;;;22.63;38.90;102011.84;5087993;28;20035;-60
2022/07/28 05:51:59;;;;;;;1.52;0.90;;;;;;;22.62;39.33;102019.16;5087480;28;20080;-60
2022/07/28 05:54:24;;;;;;;1.55;0.90;;;;;;;22.61;39.30;102014.75;5088009;28;20028;-60
2022/07/28 05:56:50;;;;;;;1.75;0.80;;;;;;;22.59;38.89;102014.06;5087926;28;20025;-59
2022/07/28 05:59:15;;;;;;;1.35;0.90;;;;;;;22.61;39.15;102017.47;5088079;28;20056;-60
2022/07/28 06:01:41;;;;;;;1.50;0.80;;;;;;;22.60;38.92;102014.91;5087960;28;20104;-60
2022/07/28 06:04:06;;;;;;;1.75;1.00;;;;;;;22.60;39.26;102017.59;5087755;28;20088;-60
2022/07/28 06:06:31;;;;;;;2.67;0.80;;;;;;;22.55;39.30;102012.69;5087606;28;20052;-60
2022/07/28 06:08:56;;;;;;;1.48;0.85;;;;;;;22.58;39.44;102020.50;5087887;28;20028;-61
2022/07/28 06:11:22;;;;;;;1.58;1.05;;;;;;;22.60;39.21;102032.03;5073570;28;20021;-60
2022/07/28 06:13:47;;;;;;;1.80;0.90;;;;;;;22.60;39.18;102026.63;5067195;28;20406;-60
2022/07/28 06:16:13;;;;;;;1.67;0.90;;;;;;;22.57;39.40;102017.97;5067741;28;20088;-60
2022/07/28 06:18:38;;;;;;;2.88;1.00;;;;;;;22.59;39.26;102033.03;5067613;28;20025;-60
2022/07/28 06:21:03;;;;;;;1.15;0.70;;;;;;;22.60;39.43;102023.03;5067353;28;20063;-60
2022/07/28 06:23:29;;;;;;;2.58;0.82;;;;;;;22.59;39.38;102027.59;5067293;28;20033;-61
2022/07/28 06:25:54;;;;;;;2.08;1.15;;;;;;;22.49;39.38;102009.81;5067764;28;20048;-60
2022/07/28 06:28:19;;;;;;;3.03;1.63;;;;;;;22.55;39.31;102020.81;5067369;28;20081;-61
2022/07/28 06:30:47;;;;;;;1.08;0.80;;;;;;;22.59;39.53;102024.88;5067309;28;20021;-60
2022/07/28 06:33:12;;;;;;;2.45;0.90;;;;;;;22.58;39.41;102031.34;5067220;28;20052;-59
2022/07/28 06:35:37;;;;;;;2.03;0.73;;;;;;;22.59;39.62;102024.88;5067067;28;20029;-59
2022/07/28 06:38:03;;;;;;;2.22;1.00;;;;;;;22.59;39.46;102026.75;5067277;28;20120;-60
2022/07/28 06:40:28;;;;;;;2.65;1.10;;;;;;;22.58;39.55;102025.06;5065783;28;20414;-60
2022/07/28 06:42:53;;;;;;;1.60;0.85;;;;;;;22.58;39.44;102025.06;5066737;28;20045;-59
2022/07/28 06:45:19;;;;;;;1.83;0.90;;;;;;;22.57;39.39;102012.53;5067303;28;20025;-60
2022/07/28 06:47:44;;;;;;;1.77;0.70;;;;;;;22.58;39.50;102016.94;5066363;28;20024;-60
2022/07/28 06:50:10;;;;;;;1.42;0.85;;;;;;;22.58;39.53;102014.22;5066758;28;20029;-60
2022/07/28 06:52:36;;;;;;;3.33;0.95;;;;;;;22.58;39.42;102016.94;5066920;28;20043;-60
2022/07/28 06:55:03;;;;;;;3.05;1.13;;;;;;;22.51;39.44;101997.75;5066956;28;20056;-60
2022/07/28 06:57:28;;;;;;;1.80;0.70;;;;;;;22.58;39.62;102011.53;5066993;28;20021;-60
2022/07/28 06:59:54;;;;;;;1.50;0.73;;;;;;;22.56;39.53;102008.97;5066684;28;20025;-59
2022/07/28 07:02:19;;;;;;;1.52;1.08;;;;;;;22.58;39.57;102015.06;5066887;28;20057;-60
2022/07/28 07:04:44;;;;;;;1.75;0.80;;;;;;;22.57;39.46;102005.25;5066614;28;20024;-59
2022/07/28 07:07:10;;;;;;;1.42;0.75;;;;;;;22.58;39.44;102006.09;5066042;28;20462;-60
2022/07/28 07:09:36;;;;;;;1.00;0.77;;;;;;;22.59;39.43;102011.34;5066459;28;20029;-59
2022/07/28 07:12:01;;;;;;;1.98;0.80;;;;;;;22.59;39.64;102011.34;5086219;28;20469;-60
2022/07/28 07:14:27;;;;;;;2.00;0.70;;;;;;;22.52;39.44;101995.94;5086353;28;20033;-60
2022/07/28 07:16:53;;;;;;;1.33;0.70;;;;;;;22.59;39.59;101999.66;5086592;28;20029;-60
2022/07/28 07:19:19;;;;;;;2.72;0.88;;;;;;;22.54;39.42;101997.44;5086576;28;20028;-59
2022/07/28 07:21:44;;;;;;;2.17;1.10;;;;;;;22.52;39.39;101995.94;5085994;28;20032;-59
2022/07/28 07:24:10;;;;;;;2.20;0.70;;;;;;;22.60;39.10;102001.34;5086326;28;20055;-59
2022/07/28 07:26:35;;;;;;;1.98;0.60;;;;;;;22.60;39.39;102001.34;5086154;28;20056;-60
2022/07/28 07:29:01;;;;;;;2.40;0.80;;;;;;;22.59;39.45;101996.94;5084888;28;20089;-60
2022/07/28 07:31:26;;;;;;;1.88;0.70;;;;;;;22.61;39.16;101998.47;5086386;28;20054;-60
2022/07/28 07:33:51;;;;;;;1.33;0.50;;;;;;;22.60;39.22;101993.22;5085667;28;20445;-59
2022/07/28 07:36:16;;;;;;;0.82;0.70;;;;;;;22.61;39.09;101997.63;5085889;28;20035;-59
2022/07/28 07:38:42;;;;;;;2.33;1.00;;;;;;;22.60;38.96;101994.09;5086068;28;20052;-60
2022/07/28 07:41:07;;;;;;;1.60;0.93;;;;;;;22.60;39.21;101994.09;5085996;28;20032;-60
2022/07/28 07:43:32;;;;;;;3.05;0.80;;;;;;;22.61;39.20;101989.50;5085582;28;20037;-60
2022/07/28 07:45:57;;;;;;;2.28;0.90;;;;;;;22.53;39.03;101970.53;5085937;28;20040;-60
2022/07/28 07:48:22;;;;;;;2.40;0.70;;;;;;;22.57;39.02;101978.16;5085798;28;20076;-60
2022/07/28 07:50:48;;;;;;;1.10;0.57;;;;;;;22.62;38.97;101981.19;5085536;28;20025;-60
2022/07/28 07:53:13;;;;;;;0.98;0.73;;;;;;;22.62;39.00;101978.47;5085841;28;20468;-60
2022/07/28 07:55:38;;;;;;;0.80;0.60;;;;;;;22.62;39.09;101994.75;5085905;28;20028;-60
2022/07/28 07:58:04;;;;;;;2.00;0.90;;;;;;;22.63;39.09;101990.16;5085735;28;20025;-60
2022/07/28 08:00:30;;;;;;;1.95;0.80;;;;;;;22.61;38.72;101984.94;5085235;28;20020;-60
2022/07/28 08:02:56;;;;;;;1.38;0.80;;;;;;;22.62;39.17;101981.19;5085719;28;20469;-60
2022/07/28 08:05:21;;;;;;;1.38;0.70;;;;;;;22.63;38.76;101976.63;5085055;28;20405;-60
2022/07/28 08:07:47;;;;;;;1.52;1.02;;;;;;;22.65;38.88;101980.03;5085693;28;20470;-61
2022/07/28 08:10:12;;;;;;;1.08;0.50;;;;;;;22.66;39.05;101979.00;5079459;28;20056;-60
2022/07/28 08:12:38;;;;;;;3.53;0.95;;;;;;;22.66;38.96;101973.59;5065331;28;20025;-60
2022/07/28 08:15:03;;;;;;;1.17;0.50;;;;;;;22.67;39.06;101972.56;5065566;28;20032;-60
2022/07/28 08:17:29;;;;;;;2.10;0.70;;;;;;;22.68;38.75;101975.13;5065381;28;20029;-60
2022/07/28 08:19:55;;;;;;;2.67;0.80;;;;;;;22.61;38.83;101952.41;5065333;28;20029;-60
2022/07/28 08:22:20;;;;;;;0.90;0.50;;;;;;;22.70;38.74;101974.94;5064935;28;20398;-60
2022/07/28 08:24:45;;;;;;;2.08;1.17;;;;;;;22.72;38.71;101970.19;5065198;28;20025;-60
2022/07/28 08:27:10;;;;;;;1.88;0.85;;;;;;;22.74;38.37;101967.31;5065433;28;20025;-60
2022/07/28 08:29:36;;;;;;;0.65;0.50;;;;;;;22.75;38.64;101974.44;5065149;28;20458;-59
2022/07/28 08:32:02;;;;;;;0.85;0.60;;;;;;;22.75;38.27;101972.56;5065400;28;20106;-61
2022/07/28 08:34:31;;;;;;;0.85;0.60;;;;;;;22.76;38.39;101971.53;5065176;28;20508;-60
2022/07/28 08:36:56;;;;;;;2.17;0.80;;;;;;;22.77;38.33;101975.09;5064929;28;20696;-59
2022/07/28 08:39:22;;;;;;;2.13;0.80;;;;;;;22.74;38.26;101973.59;5065182;28;20059;-59
2022/07/28 08:41:52;;;;;;;1.02;0.52;;;;;;;22.78;38.49;101974.94;5064958;28;20029;-59
2022/07/28 08:44:22;;;;;;;2.38;0.60;;;;;;;22.77;38.41;101966.97;5063649;28;20072;-59
2022/07/28 08:46:48;;;;;;;1.73;0.90;;;;;;;22.81;38.29;101969.19;5065136;28;20432;-61
2022/07/28 08:49:14;;;;;;;2.90;0.77;;;;;;;22.82;38.45;101972.75;5065012;28;20040;-60
2022/07/28 08:51:40;;;;;;;3.13;0.80;;;;;;;22.83;38.47;101972.56;5063186;28;20021;-60
2022/07/28 08:54:08;;;;;;;3.03;1.02;;;;;;;22.84;38.01;101968.00;5064835;28;20398;-60
2022/07/28 08:56:35;;;;;;;1.77;0.60;;;;;;;22.82;38.31;101961.91;5064985;28;20466;-60
2022/07/28 08:59:01;;;;;;;1.40;0.57;;;;;;;22.85;38.23;101965.13;5063754;28;20036;-60
2022/07/28 09:01:26;;;;;;;1.85;0.60;;;;;;;22.87;38.25;101970.38;5064782;28;20021;-60
2022/07/28 09:03:52;;;;;;;0.88;0.65;;;;;;;22.84;38.16;101957.16;5063320;28;20025;-60
2022/07/28 09:06:20;;;;;;;3.28;0.90;;;;;;;22.88;38.14;101966.66;5063194;28;20084;-60
2022/07/28 09:08:45;;;;;;;1.23;0.57;;;;;;;22.88;38.11;101959.34;5063514;28;20385;-59
2022/07/28 09:11:10;;;;;;;1.55;0.55;;;;;;;22.90;38.04;101961.94;5078905;28;20034;-60
2022/07/28 09:13:36;;;;;;;2.05;0.77;;;;;;;22.87;37.99;101964.97;5088602;28;20024;-60
2022/07/28 09:16:01;;;;;;;1.42;0.50;;;;;;;22.90;38.10;101961.94;5088922;28;20028;-60
2022/07/28 09:18:28;;;;;;;1.15;0.70;;;;;;;22.93;38.16;101972.44;5088986;28;20033;-61
2022/07/28 09:20:53;;;;;;;1.40;0.82;;;;;;;22.94;38.12;101966.00;5088274;28;20612;-59
2022/07/28 09:23:18;;;;;;;1.40;0.73;;;;;;;22.93;38.31;101962.44;5088666;28;20066;-60
2022/07/28 09:25:43;;;;;;;2.63;0.82;;;;;;;22.93;38.07;101965.13;5088911;28;20029;-59
2022/07/28 09:28:11;;;;;;;1.52;0.63;;;;;;;22.98;38.14;101961.06;5087303;28;20043;-59
2022/07/28 09:30:40;;;;;;;0.98;0.60;;;;;;;22.98;38.25;101964.66;5088782;28;20029;-60
2022/07/28 09:33:19;;;;;;;;;;;;;;;23.00;38.09;101964.47;5089244;28;20090;-59
2022/07/28 09:35:48;;;;;;;1.98;0.68;;;;;;;23.00;38.04;101968.03;5088216;28;19934;-60
2022/07/28 09:38:14;;;;;;;1.27;0.82;;;;;;;23.00;37.99;101951.75;5088603;28;20017;-59
2022/07/28 09:40:40;;;;;;;1.52;0.60;;;;;;;23.01;37.96;101956.16;5088230;28;20027;-59
2022/07/28 09:43:08;;;;;;;1.33;0.60;;;;;;;23.02;37.84;101960.56;5088135;28;20075;-60
2022/07/28 09:45:33;;;;;;;2.15;0.73;;;;;;;23.03;38.21;101959.56;5088356;28;20028;-60
2022/07/28 09:48:12;;;;;;;1.92;0.70;;;;;;;23.04;38.10;101954.97;5088019;28;20208;-61
2022/07/28 09:50:42;;;;;;;1.20;0.63;;;;;;;23.05;37.84;101953.97;5087594;28;20024;-60
2022/07/28 09:53:25;;;;;;;0.90;0.50;;;;;;;23.07;38.06;101954.66;5088041;28;20036;-60
2022/07/28 09:55:56;;;;;;;2.55;0.60;;;;;;;23.07;38.16;101951.94;5087967;28;20020;-60
2022/07/28 09:58:22;;;;;;;1.08;0.68;;;;;;;23.09;38.41;101955.31;5088074;28;20024;-60
2022/07/28 10:00:47;;;;;;;0.70;0.50;;;;;;;23.10;38.30;101951.56;5088114;28;20032;-60
2022/07/28 10:03:23;;;;;;;1.40;0.70;;;;;;;23.13;38.12;101953.94;5087936;28;20047;-59
2022/07/28 10:05:48;;;;;;;0.80;0.50;;;;;;;23.14;38.45;101950.22;5087366;28;20037;-60
2022/07/28 10:08:14;;;;;;;0.80;0.50;;;;;;;23.15;38.54;101943.75;5086939;28;20480;-60
2022/07/28 10:10:39;;;;;;;1.38;0.60;;;;;;;23.15;38.89;101936.50;5079234;28;20111;-60
2022/07/28 10:13:05;;;;;;;1.50;0.73;;;;;;;23.17;39.15;101926.31;5067554;28;20060;-60
2022/07/28 10:18:14;;;;;;;2.53;0.85;;;;;;;23.19;38.83;101929.72;5067672;28;20056;-60
2022/07/28 10:20:39;;;;;;;1.40;0.57;;;;;;;23.20;38.95;101925.13;5067397;28;20084;-60
2022/07/28 10:23:05;;;;;;;2.20;0.70;;;;;;;23.22;38.86;101909.50;5067198;28;20035;-59
2022/07/28 10:25:33;;;;;;;0.52;0.47;;;;;;;23.24;38.97;101922.91;5067677;28;20080;-59
2022/07/28 10:28:00;;;;;;;1.17;0.47;;;;;;;23.19;38.90;101912.56;5067502;28;20031;-59
2022/07/28 10:30:30;;;;;;;0.77;0.50;;;;;;;23.26;38.92;101915.44;5067686;28;20025;-59
2022/07/28 10:32:58;;;;;;;1.40;0.60;;;;;;;23.26;38.92;101915.44;5067203;28;20021;-60
2022/07/28 10:35:24;;;;;;;0.85;0.50;;;;;;;23.27;39.01;101912.53;5066924;28;20025;-60
2022/07/28 10:38:01;;;;;;;2.08;1.23;;;;;;;23.28;38.91;101910.66;5067021;28;20021;-60
2022/07/28 10:40:31;;;;;;;1.65;0.57;;;;;;;23.29;39.32;101906.97;5067185;28;20036;-60
2022/07/28 10:42:58;;;;;;;3.30;0.80;;;;;;;23.30;39.48;101908.66;5065466;28;20080;-60
2022/07/28 10:45:25;;;;;;;1.58;0.63;;;;;;;23.31;39.12;101916.59;5067170;28;20028;-60
2022/07/28 10:47:50;;;;;;;1.33;0.65;;;;;;;23.31;39.42;101916.59;5066880;28;20496;-59
2022/07/28 10:50:17;;;;;;;1.30;0.50;;;;;;;23.33;39.32;101909.16;5065629;28;20033;-60
2022/07/28 10:52:43;;;;;;;0.95;0.55;;;;;;;23.34;39.28;101901.84;5065444;28;20025;-61
2022/07/28 10:55:19;;;;;;;1.50;0.70;;;;;;;23.34;39.16;101907.28;5065898;28;20025;-61
2022/07/28 10:58:02;;;;;;;1.02;0.70;;;;;;;23.35;39.24;101898.94;5065671;28;20025;-61
2022/07/28 11:00:28;;;;;;;0.70;0.40;;;;;;;23.35;39.07;101906.25;5066153;28;20154;-60
2022/07/28 11:02:57;;;;;;;1.17;0.50;;;;;;;23.36;39.35;101902.50;5065450;28;20080;-60
2022/07/28 11:05:37;;;;;;;2.17;0.60;;;;;;;23.37;39.38;101907.78;5066699;28;20092;-60
2022/07/28 11:08:27;;;;;;;2.65;0.77;;;;;;;23.38;39.33;101904.03;5066752;28;20478;-59
2022/07/28 11:10:54;;;;;;;1.25;0.63;;;;;;;23.38;39.42;101897.78;5076894;28;20020;-59
2022/07/28 11:13:26;;;;;;;1.40;0.60;;;;;;;23.40;39.54;101909.28;5086671;28;20016;-60
2022/07/28 11:15:51;;;;;;;1.95;0.90;;;;;;;23.40;39.74;101901.97;5086588;28;20024;-59
2022/07/28 11:18:17;;;;;;;0.90;0.52;;;;;;;23.41;39.67;101900.97;5086397;28;20021;-60
2022/07/28 11:20:57;;;;;;;2.45;0.60;;;;;;;23.43;39.74;101903.50;5084876;28;20033;-60
2022/07/28 11:23:39;;;;;;;2.20;0.88;;;;;;;23.43;39.71;101901.63;5086504;28;20032;-59
2022/07/28 11:26:19;;;;;;;1.00;0.60;;;;;;;23.45;39.86;101887.91;5086750;28;20028;-60
2022/07/28 11:29:02;;;;;;;0.60;0.60;;;;;;;23.46;39.55;101900.47;5086134;28;20036;-60
2022/07/28 11:31:43;;;;;;;1.35;0.63;;;;;;;23.46;39.93;101889.59;5086672;28;20070;-59
2022/07/28 11:34:20;;;;;;;1.05;0.50;;;;;;;23.47;39.54;101885.84;5085169;28;20063;-60
2022/07/28 11:37:05;;;;;;;1.25;0.73;;;;;;;23.47;39.72;101879.59;5085628;28;20111;-59